Terminal Aerodrome Forecast
Issued by NWS

Home | Current Version | Previous Version | Text Only | Print | Product List | Glossary On
Versions: 1 2 3 4 5 6 7 8 9 10 11 12 13
945
FTPA31 PHFO 290838 AAA
TAFHKO
TAF AMD
PHKO 290838Z 2909/3006 19006KT P6SM SCT025 BKN050
     FM291000 VRB03KT P6SM SCT050 BKN080
     FM292100 22009KT P6SM SCT050 BKN080=

USA.gov is the U.S. government's official web portal to all federal, state and local government web resources and services.